Flight Track Log - Related Links

Times and Time Zones

All times are in EDT time to prevent confusion due to time zone crossing. See the SKW4682 flight status page for this flight to view local times or setup timezone preferences in your user account.

Time Position Orientation Groundspeed Altitude Reporting Facility
EDT Latitude Longitude Course Direction KTS MPH feet Rate Location/Type
Wed 10:53:31 PM 44.9167 -93.2333 301° West 162 186 2,300  Level Minneapolis TRACON
Wed 10:54:16 PM 44.9419 -93.2633 320° Northwest 180 207 3,400 1,925 Climbing Minneapolis Center
Wed 10:55:17 PM 44.9989 -93.3139 328° Northwest 239 275 5,700 2,508 Climbing Minneapolis Center
Wed 10:56:00 PM 45.1894 -93.4927 302° West  Level FlightAware Approximate
Wed 10:56:18 PM 45.0575 -93.3722 325° Northwest 257 296 8,500  Level Minneapolis Center
Wed 10:57:00 PM 45.2336 -93.6172 295° West  Level FlightAware Approximate
Wed 10:57:19 PM 45.1019 -93.4558 307° West 270 311 10,900  Level Minneapolis Center
Wed 10:58:00 PM 45.2775 -93.7419 301° West  Level FlightAware Approximate
Wed 10:58:21 PM 45.1600 -93.5700 306° West 302 348 13,000  Level Minneapolis Center
Wed 10:59:22 PM 45.2122 -93.6706 306° West 317 365 15,100 1,728 Climbing Minneapolis Center
Wed 11:00:26 PM 45.2644 -93.7706 307° West 320 368 16,600 1,488 Climbing Minneapolis Center
Wed 11:01:27 PM 45.3164 -93.8753 305° West 327 376 18,200 1,415 Climbing Minneapolis Center
Wed 11:02:29 PM 45.3731 -93.9747 309° West 325 374 19,500 1,171 Climbing Minneapolis Center
Wed 11:03:30 PM 45.4319 -94.0767 309° West 332 382 20,600 1,033 Climbing Minneapolis Center
Wed 11:04:31 PM 45.4939 -94.1808 310° West 341 392 21,600 1,082 Climbing Minneapolis Center
Wed 11:05:32 PM 45.5681 -94.3094 310° West 351 404 22,800 1,122 Climbing Minneapolis Center
Wed 11:06:34 PM 45.6303 -94.4178 309° West 353 406 23,900 829 Climbing Minneapolis Center
Wed 11:07:35 PM 45.6933 -94.5258 310° West 355 409 24,500 541 Climbing Minneapolis Center
Wed 11:08:36 PM 45.7572 -94.6367 310° West 360 414 25,000 590 Climbing Minneapolis Center
Wed 11:09:37 PM 45.8222 -94.7506 309° West 369 425 25,700 780 Climbing Minneapolis Center
Wed 11:10:39 PM 45.8878 -94.8653 309° West 372 428 26,600 829 Climbing Minneapolis Center
Wed 11:11:40 PM 45.9528 -94.9789 309° West 370 426 27,400 689 Climbing Minneapolis Center
Wed 11:12:41 PM 46.0242 -95.1064 309° West 369 425 28,000 590 Climbing Minneapolis Center
Wed 11:13:42 PM 46.0906 -95.2231 309° West 376 433 28,600 634 Climbing Minneapolis Center
Wed 11:14:44 PM 46.1539 -95.3372 309° West 370 426 29,300 683 Climbing Minneapolis Center
Wed 11:15:45 PM 46.2194 -95.4514 310° West 371 427 30,000 738 Climbing Minneapolis Center
Wed 11:16:46 PM 46.2822 -95.5675 308° West 368 423 30,800 683 Climbing Minneapolis Center
Wed 11:17:48 PM 46.3461 -95.6808 309° West 366 421 31,400 585 Climbing Minneapolis Center
Wed 11:18:49 PM 46.4211 -95.8186 308° West 366 421 32,000 295 Climbing Minneapolis Center
Wed 11:19:50 PM 46.4828 -95.9314 308° West 372 428 32,000  Level Minneapolis Center
Wed 11:20:51 PM 46.5356 -96.0289 308° West 380 437 32,000  Level Minneapolis Center
Wed 11:21:53 PM 46.6158 -96.1756 309° West 388 447 32,000  Level Minneapolis Center
Wed 11:22:54 PM 46.6831 -96.3011 308° West 393 452 32,000  Level Minneapolis Center
Wed 11:23:55 PM 46.7503 -96.4264 308° West 394 453 32,000  Level Minneapolis Center
Wed 11:24:56 PM 46.8192 -96.5528 309° West 399 459 32,000  Level Minneapolis Center
Wed 11:25:57 PM 46.8872 -96.6800 308° West 400 460 32,000  Level Minneapolis Center
Wed 11:26:59 PM 46.9553 -96.8072 308° West 399 459 32,000  Level Minneapolis Center
Wed 11:28:00 PM 47.0378 -96.9617 308° West 401 461 32,000  Level Minneapolis Center
Wed 11:29:13 PM 47.1053 -97.0900 308° West 399 459 32,000  Level Minneapolis Center
Wed 11:30:14 PM 47.1867 -97.2439 308° West 398 458 32,000  Level Minneapolis Center
Wed 11:31:15 PM 47.2536 -97.3714 308° West 396 456 32,000  Level Minneapolis Center
Wed 11:32:17 PM 47.3197 -97.4989 307° West 394 453 32,000  Level Minneapolis Center
Wed 11:33:18 PM 47.3858 -97.6281 307° West 396 456 32,000  Level Minneapolis Center
Wed 11:34:19 PM 47.4522 -97.7556 308° West 394 453 32,000  Level Minneapolis Center
Wed 11:35:20 PM 47.5283 -97.9056 307° West 395 455 32,000  Level Minneapolis Center
Wed 11:36:21 PM 47.5894 -98.0269 307° West 394 453 32,000  Level Minneapolis Center
Wed 11:37:22 PM 47.6558 -98.1561 307° West 393 452 32,000  Level Minneapolis Center
Wed 11:38:23 PM 47.7211 -98.2861 307° West 393 452 32,000  Level Minneapolis Center
Wed 11:39:24 PM 47.7867 -98.4172 307° West 395 455 32,000  Level Minneapolis Center
Wed 11:40:25 PM 47.8536 -98.5492 307° West 398 458 32,000  Level Minneapolis Center
Wed 11:41:26 PM 47.9186 -98.6817 306° West 399 459 32,000  Level Minneapolis Center
Wed 11:42:27 PM 47.9836 -98.8139 306° West 397 457 32,000  Level Minneapolis Center
Wed 11:43:28 PM 48.0492 -98.9428 307° West 393 452 32,000  Level Minneapolis Center
Wed 11:44:41 PM 48.1397 -99.1297 306° West 397 457 32,000  Level Minneapolis Center
Wed 11:45:42 PM 48.2042 -99.2622 306° West 396 456 32,000  Level Minneapolis Center
Wed 11:46:43 PM 48.2661 -99.3997 304° West 397 457 32,000  Level Minneapolis Center
Wed 11:47:44 PM 48.3317 -99.5333 306° West 397 457 32,000  Level Minneapolis Center
Wed 11:48:45 PM 48.3961 -99.6661 306° West 396 456 32,000  Level Minneapolis Center
Wed 11:49:46 PM 48.4581 -99.8014 305° West 394 453 32,000  Level Minneapolis Center
Wed 11:50:47 PM 48.5233 -99.9333 307° West 393 452 32,000  Level Minneapolis Center
Wed 11:51:48 PM 48.5847 -100.0681 305° West 391 450 32,000  Level Minneapolis Center
Wed 11:52:49 PM 48.6481 -100.2006 306° West 389 448 32,000  Level Minneapolis Center
Wed 11:53:50 PM 48.7108 -100.3331 306° West 389 448 32,000  Level Minneapolis Center
Wed 11:54:51 PM 48.7719 -100.4683 304° West 389 448 32,000  Level Minneapolis Center
Wed 11:55:52 PM 48.8347 -100.6031 305° West 391 450 32,000  Level Minneapolis Center
Wed 11:56:53 PM 48.9097 -100.7647 305° West 391 450 32,000  Level Minneapolis Center
Wed 11:57:10 PM 48.9167 -100.8167 282° West 390 449 32,000  Level Winnipeg Center
Wed 11:58:10 PM 48.9667 -100.9333 303° West 390 449 32,000  Level Winnipeg Center
Wed 11:59:10 PM 49.0333 -101.0667 307° West 390 449 32,000  Level Winnipeg Center
Thu 12:00:10 AM 49.1000 -101.2333 301° West 400 460 32,000  Level Winnipeg Center
Thu 12:01:10 AM 49.1667 -101.3333 316° Northwest 390 449 32,000  Level Winnipeg Center
Thu 12:02:10 AM 49.2167 -101.4667 300° West 390 449 32,000  Level Winnipeg Center
Thu 12:03:10 AM 49.2833 -101.6333 302° West 390 449 32,000  Level Winnipeg Center
Thu 12:04:10 AM 49.3500 -101.7667 308° West 390 449 32,000  Level Winnipeg Center
Thu 12:05:10 AM 49.4000 -101.9000 300° West 390 449 32,000  Level Winnipeg Center
Thu 12:06:10 AM 49.4667 -102.0333 308° West 390 449 32,000  Level Winnipeg Center
Thu 12:07:10 AM 49.5333 -102.2000 302° West 390 449 32,000  Level Winnipeg Center
Thu 12:08:10 AM 49.5667 -102.3667 287° West 390 449 32,000  Level Winnipeg Center
Thu 12:09:10 AM 49.6167 -102.5000 300° West 390 449 32,000 -50 Level Winnipeg Center
Thu 12:10:10 AM 49.6667 -102.6500 297° West 390 449 31,900 -1,200 Descending Winnipeg Center
Thu 12:11:10 AM 49.7167 -102.7833 300° West 400 460 29,600 -2,450 Descending Winnipeg Center
Thu 12:12:10 AM 49.7667 -102.9500 295° West 410 472 27,000 -2,633 Descending Winnipeg Center
Thu 12:14:10 AM 49.8667 -103.2500 297° West 390 449 21,700 -2,600 Descending Winnipeg Center
Thu 12:15:10 AM 49.9333 -103.3833 308° West 380 437 19,200 -2,600 Descending Winnipeg Center
Thu 12:16:10 AM 49.9667 -103.5500 287° West 390 449 16,500 -2,600 Descending Winnipeg Center
Thu 12:17:10 AM 50.0167 -103.6833 300° West 390 449 14,000 -2,400 Descending Winnipeg Center
Thu 12:18:10 AM 50.0833 -103.8333 305° West 370 426 11,700 -1,800 Descending Winnipeg Center
Thu 12:19:10 AM 50.1167 -103.9667 291° West 310 357 10,400 -1,550 Descending Winnipeg Center
Thu 12:20:10 AM 50.1500 -104.0667 298° West 280 322 8,600 -1,800 Descending Winnipeg Center
Thu 12:21:10 AM 50.1667 -104.1500 287° West 270 311 6,800 -1,650 Descending Winnipeg Center
Thu 12:22:10 AM 50.2167 -104.2667 304° West 260 299 5,300 -1,450 Descending Winnipeg Center
Thu 12:23:10 AM 50.2500 -104.3500 302° West 260 299 3,900 -900 Descending Winnipeg Center
Thu 12:24:10 AM 50.2667 -104.4667 283° West 240 276 3,500 -200 Descending Winnipeg Center
Thu 12:25:10 AM 50.3000 -104.5167 316° Northwest 200 230 3,500  Level Winnipeg Center
Thu 12:26:10 AM 50.3500 -104.5833 320° Northwest 190 219 3,500 -400 Level Winnipeg Center
Thu 12:27:10 AM 50.3833 -104.6333 316° Northwest 160 184 2,700 -800 Descending Winnipeg Center

Login

Don't have an account? Register now (free) for customized features, flight alerts, and more!